Time;durP1;ratioP1;P1;durP2;ratioP2;P2;SDS_P1;SDS_P2;PMS_P1;PMS_P2;Temp;Humidity;BMP_temperature;BMP_pressure;BME280_temperature;BME280_humidity;BME280_pressure;Samples;Min_cycle;Max_cycle;Signal;HPM_P1;HPM_P2
2023/12/26 00:02:08;;;;;;;2.38;1.98;;;;;;;10.04;100.00;100512.28;5094340;28;20020;-57
2023/12/26 00:04:34;;;;;;;2.65;2.03;;;;;;;10.11;100.00;100514.41;5093841;28;20424;-57
2023/12/26 00:06:59;;;;;;;2.30;2.10;;;;;;;9.98;100.00;100506.41;5111405;28;20489;-57
2023/12/26 00:09:25;;;;;;;4.00;2.10;;;;;;;10.01;100.00;100505.38;5110973;28;20035;-57
2023/12/26 00:11:50;;;;;;;1.90;1.80;;;;;;;10.12;100.00;100515.28;5110933;28;20023;-56
2023/12/26 00:14:18;;;;;;;3.60;2.72;;;;;;;9.99;100.00;100516.09;5110721;28;20470;-56
2023/12/26 00:16:44;;;;;;;3.17;2.17;;;;;;;10.15;100.00;100510.63;5110885;28;20024;-57
2023/12/26 00:19:10;;;;;;;2.63;2.35;;;;;;;10.05;100.00;100511.31;5111258;28;20015;-57
2023/12/26 00:21:39;;;;;;;3.00;2.03;;;;;;;10.08;100.00;100519.94;5093124;28;20027;-57
2023/12/26 00:24:05;;;;;;;6.15;2.20;;;;;;;9.93;100.00;100519.16;5111505;28;20365;-57
2023/12/26 00:26:30;;;;;;;2.20;2.00;;;;;;;9.92;100.00;100500.66;5111606;28;20035;-57
2023/12/26 00:28:58;;;;;;;2.33;2.03;;;;;;;9.99;100.00;100502.78;5111908;28;20023;-57
2023/12/26 00:31:23;;;;;;;2.25;1.80;;;;;;;9.91;100.00;100498.94;5115547;27;20033;-57
2023/12/26 00:33:49;;;;;;;3.17;2.10;;;;;;;9.91;100.00;100505.13;5112541;27;20028;-57
2023/12/26 00:36:18;;;;;;;2.28;1.90;;;;;;;9.98;100.00;100500.25;5111113;28;20132;-57
2023/12/26 00:38:47;;;;;;;2.40;2.20;;;;;;;9.95;100.00;100503.97;5092452;28;20106;-57
2023/12/26 00:41:16;;;;;;;2.78;2.20;;;;;;;9.85;100.00;100504.66;5092966;28;20031;-57
2023/12/26 00:43:42;;;;;;;1.83;1.73;;;;;;;9.84;100.00;100511.78;5110764;28;20027;-57
2023/12/26 00:46:08;;;;;;;3.28;1.95;;;;;;;9.83;100.00;100512.75;5111458;28;20402;-57
2023/12/26 00:48:36;;;;;;;2.92;2.38;;;;;;;9.79;100.00;100513.88;5111226;28;20031;-57
2023/12/26 00:51:01;;;;;;;2.30;2.20;;;;;;;9.72;100.00;100509.94;5111084;28;20111;-57
2023/12/26 00:53:29;;;;;;;4.13;1.90;;;;;;;9.93;100.00;100516.50;5110415;28;20107;-56
2023/12/26 00:55:54;;;;;;;1.92;1.60;;;;;;;9.89;100.00;100512.34;5092762;28;20031;-56
2023/12/26 00:58:22;;;;;;;2.28;2.08;;;;;;;9.74;100.00;100523.97;5111000;28;20634;-56
2023/12/26 01:00:47;;;;;;;3.58;2.10;;;;;;;9.78;100.00;100534.28;5110691;28;20024;-56
2023/12/26 01:03:15;;;;;;;2.28;1.90;;;;;;;9.85;100.00;100532.06;5110815;28;20034;-56
2023/12/26 01:05:41;;;;;;;1.98;1.88;;;;;;;9.76;100.00;100535.31;5110802;28;20026;-57
2023/12/26 01:08:11;;;;;;;3.08;2.35;;;;;;;9.73;100.00;100527.56;5110716;28;20032;-57
2023/12/26 01:10:36;;;;;;;3.20;1.92;;;;;;;9.76;100.00;100538.84;5110676;28;20042;-57
2023/12/26 01:13:02;;;;;;;2.10;2.00;;;;;;;9.68;100.00;100530.53;5094857;28;20033;-57
2023/12/26 01:15:27;;;;;;;2.03;1.88;;;;;;;9.74;100.00;100535.44;5114931;28;20028;-57
2023/12/26 01:17:53;;;;;;;2.30;1.80;;;;;;;9.77;100.00;100543.22;5114550;28;20492;-57
2023/12/26 01:20:18;;;;;;;2.33;2.00;;;;;;;9.78;100.00;100539.59;5079685;28;20024;-57
2023/12/26 01:22:44;;;;;;;1.98;1.77;;;;;;;9.75;100.00;100544.25;5116689;27;20028;-57
2023/12/26 01:25:12;;;;;;;2.10;1.90;;;;;;;9.83;100.00;100539.31;5095811;28;20543;-57
2023/12/26 01:27:39;;;;;;;1.92;1.83;;;;;;;9.71;100.00;100545.41;5099180;28;20512;-57
2023/12/26 01:30:05;;;;;;;2.13;2.03;;;;;;;9.73;100.00;100551.47;5114801;28;20042;-57
2023/12/26 01:32:31;;;;;;;2.00;1.90;;;;;;;9.87;100.00;100545.25;5114484;28;20501;-57
2023/12/26 01:34:56;;;;;;;1.92;1.83;;;;;;;9.84;100.00;100553.44;5101048;27;20047;-57
2023/12/26 01:37:22;;;;;;;3.70;2.10;;;;;;;9.70;100.00;100556.97;5118602;27;20371;-57
2023/12/26 01:39:47;;;;;;;1.92;1.83;;;;;;;9.91;100.00;100565.34;5113847;28;20102;-57
2023/12/26 01:42:13;;;;;;;1.77;1.65;;;;;;;9.76;100.00;100559.22;5114256;28;20032;-56
2023/12/26 01:44:39;;;;;;;2.75;1.90;;;;;;;9.71;100.00;100561.34;5097466;28;20047;-57
2023/12/26 01:47:04;;;;;;;2.28;2.05;;;;;;;9.72;100.00;100560.38;5122325;27;20047;-57
2023/12/26 01:49:30;;;;;;;2.28;2.17;;;;;;;9.68;100.00;100566.84;5112526;28;20032;-57
2023/12/26 01:51:58;;;;;;;5.53;2.90;;;;;;;9.65;100.00;100562.59;5115833;27;20019;-57
2023/12/26 01:54:30;;;;;;;3.22;2.90;;;;;;;9.66;100.00;100582.03;5111091;28;20160;-57
2023/12/26 01:56:56;;;;;;;2.58;2.38;;;;;;;9.74;100.00;100566.47;5115391;27;20489;-57
2023/12/26 01:59:22;;;;;;;2.67;2.53;;;;;;;9.69;100.00;100580.03;5097019;28;20106;-57
2023/12/26 02:01:48;;;;;;;2.88;2.00;;;;;;;9.69;100.00;100577.38;5115379;27;20027;-57
2023/12/26 02:04:14;;;;;;;2.15;2.05;;;;;;;9.71;100.00;100564.84;5078870;28;20394;-57
2023/12/26 02:06:39;;;;;;;2.25;2.15;;;;;;;9.69;100.00;100590.66;5114734;27;20051;-57
2023/12/26 02:09:10;;;;;;;2.53;2.28;;;;;;;9.70;100.00;100586.19;5096924;28;20537;-57
2023/12/26 02:11:37;;;;;;;2.20;2.10;;;;;;;9.71;100.00;100587.91;5096675;28;20035;-57
2023/12/26 02:14:04;;;;;;;2.63;1.88;;;;;;;9.72;100.00;100592.25;5115903;27;20110;-57
2023/12/26 02:16:31;;;;;;;2.60;2.40;;;;;;;9.75;100.00;100597.38;5120385;27;20030;-57
2023/12/26 02:18:56;;;;;;;2.38;2.17;;;;;;;9.72;100.00;100573.66;5098948;28;20040;-57
2023/12/26 02:21:22;;;;;;;3.00;2.72;;;;;;;9.80;100.00;100589.97;5095252;28;20023;-57
2023/12/26 02:23:53;;;;;;;2.17;2.00;;;;;;;9.92;100.00;100586.53;5114705;27;20019;-57
2023/12/26 02:26:21;;;;;;;3.70;2.55;;;;;;;9.68;100.00;100588.09;5116133;27;20028;-57
2023/12/26 02:28:49;;;;;;;2.85;2.25;;;;;;;9.62;100.00;100599.97;5117830;27;20422;-57
2023/12/26 02:31:15;;;;;;;2.50;2.30;;;;;;;9.71;100.00;100607.34;5096849;28;20089;-57
2023/12/26 02:33:42;;;;;;;3.35;2.53;;;;;;;9.67;100.00;100597.84;5096607;28;20074;-57
2023/12/26 02:36:08;;;;;;;2.33;2.20;;;;;;;9.73;100.00;100609.88;5096946;28;20157;-57
2023/12/26 02:38:33;;;;;;;2.25;2.13;;;;;;;9.67;100.00;100592.53;5117244;27;20106;-57
2023/12/26 02:40:58;;;;;;;2.25;2.05;;;;;;;9.69;100.00;100598.59;5114625;27;20363;-57
2023/12/26 02:43:27;;;;;;;3.28;2.38;;;;;;;9.63;100.00;100584.88;5113035;28;20027;-57
2023/12/26 02:45:52;;;;;;;2.20;2.10;;;;;;;9.68;100.00;100596.06;5094762;27;20052;-56
2023/12/26 02:48:20;;;;;;;2.10;2.00;;;;;;;9.68;100.00;100598.72;5097793;27;20031;-57
2023/12/26 02:50:48;;;;;;;2.33;2.22;;;;;;;9.86;100.00;100604.66;5095365;28;20027;-57
2023/12/26 02:53:14;;;;;;;2.20;2.10;;;;;;;9.67;100.00;100594.34;5113131;28;20023;-57
2023/12/26 02:55:40;;;;;;;2.70;2.50;;;;;;;9.77;100.00;100596.31;5114868;27;20034;-56
2023/12/26 02:58:06;;;;;;;2.75;1.85;;;;;;;9.69;100.00;100595.94;5115716;27;20059;-57
2023/12/26 03:00:31;;;;;;;2.88;2.67;;;;;;;9.81;100.00;100604.09;5096951;27;20055;-56
2023/12/26 03:02:56;;;;;;;2.65;2.45;;;;;;;9.70;100.00;100600.31;5095919;28;20043;-57
2023/12/26 03:05:23;;;;;;;3.42;2.83;;;;;;;9.73;100.00;100599.25;5113440;27;20028;-57
2023/12/26 03:07:49;;;;;;;3.13;2.83;;;;;;;9.63;100.00;100612.28;5112990;28;20034;-57
2023/12/26 03:10:14;;;;;;;6.90;3.28;;;;;;;9.73;100.00;100621.34;5114251;27;20027;-56
2023/12/26 03:12:40;;;;;;;4.18;2.72;;;;;;;9.71;100.00;100628.59;5117902;27;20076;-57
2023/12/26 03:15:06;;;;;;;3.58;3.20;;;;;;;9.68;100.00;100643.88;5078390;28;20023;-56
2023/12/26 03:17:31;;;;;;;3.85;3.13;;;;;;;9.63;100.00;100645.94;5113935;27;20432;-57
2023/12/26 03:19:57;;;;;;;3.75;3.13;;;;;;;9.56;100.00;100637.53;5113358;27;20046;-56
2023/12/26 03:22:22;;;;;;;7.40;3.50;;;;;;;9.63;100.00;100641.50;5113873;27;20023;-56
2023/12/26 03:24:48;;;;;;;4.20;3.33;;;;;;;9.58;100.00;100640.91;5094701;28;20470;-57
2023/12/26 03:27:16;;;;;;;4.38;3.60;;;;;;;9.54;100.00;100640.25;5114379;27;20076;-57
2023/12/26 03:29:42;;;;;;;6.40;3.03;;;;;;;9.62;100.00;100646.88;5093773;28;20106;-57
2023/12/26 03:32:09;;;;;;;7.50;3.78;;;;;;;9.61;100.00;100648.69;5112579;28;20091;-57
2023/12/26 03:34:34;;;;;;;7.88;3.95;;;;;;;9.58;100.00;100648.88;5095503;28;20111;-57
2023/12/26 03:37:00;;;;;;;3.92;3.40;;;;;;;9.59;100.00;100653.25;5095615;28;20122;-57
2023/12/26 03:39:25;;;;;;;5.13;4.60;;;;;;;9.46;100.00;100641.69;5113857;27;20024;-57
2023/12/26 03:41:53;;;;;;;6.80;4.32;;;;;;;9.55;100.00;100654.38;5104256;28;20056;-57
2023/12/26 03:44:19;;;;;;;8.20;4.95;;;;;;;9.51;100.00;100658.19;5116008;27;20063;-57
2023/12/26 03:46:44;;;;;;;8.50;3.42;;;;;;;9.55;100.00;100657.88;5115557;27;20035;-57
2023/12/26 03:49:10;;;;;;;4.63;3.00;;;;;;;9.59;100.00;100653.25;5113730;27;20032;-57
2023/12/26 03:51:36;;;;;;;8.70;3.45;;;;;;;9.54;100.00;100656.19;5114702;27;20015;-57
2023/12/26 03:54:02;;;;;;;4.47;3.13;;;;;;;9.54;100.00;100660.66;5115653;27;20118;-57
2023/12/26 03:56:31;;;;;;;5.38;3.38;;;;;;;9.55;100.00;100668.50;5112086;28;20098;-57
2023/12/26 03:58:58;;;;;;;4.22;3.53;;;;;;;9.56;100.00;100672.03;5112351;27;20026;-57
2023/12/26 04:01:23;;;;;;;4.53;3.50;;;;;;;9.52;100.00;100659.88;5117172;27;20049;-57
2023/12/26 04:03:49;;;;;;;5.65;3.75;;;;;;;9.53;100.00;100675.72;5113314;27;20024;-57
2023/12/26 04:06:15;;;;;;;3.33;3.03;;;;;;;9.55;100.00;100675.63;5113767;27;20027;-57
2023/12/26 04:08:41;;;;;;;4.82;3.20;;;;;;;9.54;100.00;100684.53;5112114;27;20019;-57
2023/12/26 04:11:08;;;;;;;5.15;2.92;;;;;;;9.56;100.00;100701.25;5112388;27;20028;-57
2023/12/26 04:13:34;;;;;;;8.85;3.10;;;;;;;9.52;100.00;100716.47;5112136;27;20092;-57
2023/12/26 04:15:59;;;;;;;5.40;2.70;;;;;;;9.51;100.00;100703.31;5114675;27;20027;-57
2023/12/26 04:18:25;;;;;;;9.48;3.55;;;;;;;9.50;100.00;100704.25;5112995;27;20026;-57
2023/12/26 04:20:50;;;;;;;6.97;2.85;;;;;;;9.54;100.00;100705.78;5114710;27;20416;-57
2023/12/26 04:23:15;;;;;;;8.35;3.00;;;;;;;9.49;100.00;100703.38;5094238;28;20555;-57
2023/12/26 04:25:41;;;;;;;11.57;3.30;;;;;;;9.55;100.00;100705.66;5112424;27;20042;-57
2023/12/26 04:28:06;;;;;;;13.38;3.10;;;;;;;9.52;100.00;100705.00;5112873;27;20090;-57
2023/12/26 04:30:32;;;;;;;6.15;2.08;;;;;;;9.62;100.00;100716.78;5094375;28;20386;-57
2023/12/26 04:32:57;;;;;;;9.63;2.80;;;;;;;9.55;100.00;100713.63;5096011;28;20134;-57
2023/12/26 04:35:22;;;;;;;5.88;2.40;;;;;;;9.53;100.00;100723.50;5112988;28;20042;-57
2023/12/26 04:37:48;;;;;;;4.47;2.55;;;;;;;9.73;100.00;100714.31;5096738;28;20020;-57
2023/12/26 04:40:13;;;;;;;9.45;3.15;;;;;;;9.44;100.00;100715.22;5112105;27;20470;-57
2023/12/26 04:42:39;;;;;;;6.45;2.22;;;;;;;9.49;100.00;100716.66;5092794;28;20028;-57
2023/12/26 04:45:07;;;;;;;8.45;2.58;;;;;;;9.45;100.00;100724.94;5113673;28;20062;-57
2023/12/26 04:47:32;;;;;;;11.23;2.45;;;;;;;9.51;100.00;100748.44;5117905;27;20027;-57
2023/12/26 04:49:59;;;;;;;8.98;2.47;;;;;;;9.48;100.00;100754.78;5120295;27;20024;-57
2023/12/26 04:52:25;;;;;;;5.03;2.42;;;;;;;9.47;100.00;100758.41;5117801;28;20049;-57
2023/12/26 04:54:50;;;;;;;6.50;2.28;;;;;;;9.45;100.00;100751.47;5117396;28;20028;-57
2023/12/26 04:57:16;;;;;;;11.15;3.58;;;;;;;9.35;100.00;100745.00;5100771;28;20028;-57
2023/12/26 04:59:42;;;;;;;6.40;2.67;;;;;;;9.50;100.00;100760.88;5105704;27;20076;-57
2023/12/26 05:02:07;;;;;;;4.47;2.55;;;;;;;9.36;100.00;100768.81;5118882;27;20036;-57
2023/12/26 05:04:33;;;;;;;5.72;2.40;;;;;;;9.29;100.00;100767.44;5117693;27;20036;-57
2023/12/26 05:06:58;;;;;;;9.23;2.45;;;;;;;9.31;100.00;100784.13;5117934;28;20115;-57
2023/12/26 05:09:24;;;;;;;14.07;3.00;;;;;;;9.33;100.00;100785.75;5116689;28;20110;-56
2023/12/26 05:11:53;;;;;;;7.18;2.25;;;;;;;9.28;100.00;100802.91;5117679;28;20015;-57
2023/12/26 05:14:18;;;;;;;8.25;2.60;;;;;;;9.24;100.00;100802.22;5098525;28;20034;-57
2023/12/26 05:16:45;;;;;;;5.30;2.20;;;;;;;9.15;100.00;100785.97;5117582;28;20024;-56
2023/12/26 05:19:10;;;;;;;6.18;2.30;;;;;;;9.18;100.00;100799.94;5117654;28;20023;-57
2023/12/26 05:21:36;;;;;;;9.98;2.55;;;;;;;9.18;100.00;100805.22;5117738;28;20024;-57
2023/12/26 05:24:02;;;;;;;6.15;2.28;;;;;;;9.26;100.00;100805.63;5117630;28;20027;-56
2023/12/26 05:26:28;;;;;;;6.72;2.33;;;;;;;9.16;100.00;100801.81;5099305;28;20482;-57
2023/12/26 05:28:53;;;;;;;5.50;2.95;;;;;;;9.17;100.00;100818.56;5098954;28;20026;-56
2023/12/26 05:31:20;;;;;;;10.00;2.35;;;;;;;9.07;100.00;100820.91;5098972;28;20019;-57
2023/12/26 05:33:45;;;;;;;8.10;2.50;;;;;;;9.05;100.00;100826.28;5117343;28;20023;-56
2023/12/26 05:36:11;;;;;;;9.18;2.42;;;;;;;9.04;100.00;100834.34;5117210;28;20031;-57
2023/12/26 05:38:39;;;;;;;9.18;2.80;;;;;;;9.03;100.00;100838.81;5117218;28;20020;-57
2023/12/26 05:41:07;;;;;;;7.23;2.33;;;;;;;9.00;100.00;100844.28;5117273;28;20042;-57
2023/12/26 05:43:33;;;;;;;9.98;2.67;;;;;;;8.96;100.00;100847.19;5098880;28;20129;-57
2023/12/26 05:46:02;;;;;;;11.15;2.40;;;;;;;8.92;100.00;100835.91;5116819;28;20071;-57
2023/12/26 05:48:27;;;;;;;9.57;2.40;;;;;;;8.89;100.00;100854.66;5117244;28;20494;-57
2023/12/26 05:50:53;;;;;;;5.53;2.25;;;;;;;8.85;100.00;100853.97;5117409;28;20080;-57
2023/12/26 05:53:18;;;;;;;13.00;3.22;;;;;;;8.87;100.00;100870.63;5098674;28;20096;-57
2023/12/26 05:55:43;;;;;;;8.63;2.20;;;;;;;8.77;100.00;100885.34;5117019;28;20031;-56
2023/12/26 05:58:11;;;;;;;6.95;2.53;;;;;;;8.70;100.00;100896.38;5116072;28;20030;-56
2023/12/26 06:00:36;;;;;;;5.40;2.13;;;;;;;8.70;100.00;100896.38;5113796;28;20381;-56
2023/12/26 06:03:02;;;;;;;5.55;1.85;;;;;;;8.62;100.00;100887.03;5119274;27;20024;-56
2023/12/26 06:05:27;;;;;;;10.25;2.28;;;;;;;8.66;100.00;100892.19;5116866;27;20054;-56
2023/12/26 06:07:53;;;;;;;5.78;1.95;;;;;;;8.60;100.00;100903.97;5114049;28;20031;-56
2023/12/26 06:10:18;;;;;;;5.47;2.20;;;;;;;8.52;100.00;100907.03;5115700;27;20043;-56
2023/12/26 06:12:44;;;;;;;7.30;2.15;;;;;;;8.45;100.00;100883.59;5112601;28;20023;-57
2023/12/26 06:15:09;;;;;;;8.35;2.58;;;;;;;8.50;100.00;100894.78;5114032;28;20224;-57
2023/12/26 06:17:36;;;;;;;6.60;1.98;;;;;;;8.46;100.00;100912.66;5099826;28;20028;-56
2023/12/26 06:20:03;;;;;;;8.73;2.40;;;;;;;8.43;100.00;100914.63;5112699;27;20027;-57
2023/12/26 06:22:28;;;;;;;6.35;2.08;;;;;;;8.42;100.00;100934.97;5113859;28;20477;-57
2023/12/26 06:24:54;;;;;;;10.20;2.30;;;;;;;8.30;100.00;100930.28;5112911;28;20028;-57
2023/12/26 06:27:19;;;;;;;7.43;2.10;;;;;;;8.30;100.00;100952.34;5113947;28;20642;-57
2023/12/26 06:29:45;;;;;;;8.95;2.97;;;;;;;8.30;100.00;100957.63;5113430;28;20430;-57
2023/12/26 06:32:10;;;;;;;6.55;2.17;;;;;;;8.30;100.00;100964.72;5095006;28;20520;-57
2023/12/26 06:34:36;;;;;;;8.57;2.05;;;;;;;8.27;100.00;100968.41;5113615;28;20390;-56
2023/12/26 06:37:01;;;;;;;5.63;2.47;;;;;;;8.25;100.00;100974.69;5113170;28;20023;-56
2023/12/26 06:39:27;;;;;;;12.40;2.13;;;;;;;8.20;100.00;100966.97;5094088;28;20041;-57
2023/12/26 06:41:52;;;;;;;9.93;2.40;;;;;;;8.22;100.00;100972.22;5092004;28;20091;-57
2023/12/26 06:44:17;;;;;;;5.53;2.10;;;;;;;8.18;100.00;100974.16;5094600;28;20051;-57
2023/12/26 06:46:46;;;;;;;4.70;2.10;;;;;;;8.18;100.00;100960.91;5113119;28;20020;-57
2023/12/26 06:49:16;;;;;;;9.52;2.65;;;;;;;8.20;100.00;100969.63;5113185;28;20084;-57
2023/12/26 06:51:42;;;;;;;9.57;2.38;;;;;;;8.16;100.00;100965.44;5112973;28;20023;-57
2023/12/26 06:54:07;;;;;;;5.60;2.33;;;;;;;8.16;100.00;100974.22;5112604;28;20031;-57
2023/12/26 06:56:33;;;;;;;6.07;2.20;;;;;;;8.05;100.00;100957.16;5112801;28;20027;-57
2023/12/26 06:58:58;;;;;;;5.13;2.60;;;;;;;8.09;100.00;100977.25;5112994;28;20476;-57
2023/12/26 07:01:24;;;;;;;8.27;2.22;;;;;;;8.08;100.00;100976.41;5094266;28;20016;-57
2023/12/26 07:03:50;;;;;;;8.02;2.33;;;;;;;7.97;100.00;100971.66;5112434;28;20019;-57
2023/12/26 07:06:15;;;;;;;5.90;2.10;;;;;;;8.14;100.00;100978.75;5112852;28;20610;-57
2023/12/26 07:08:43;;;;;;;7.05;2.58;;;;;;;7.99;100.00;100982.16;5092581;28;20047;-58
2023/12/26 07:11:08;;;;;;;11.75;3.53;;;;;;;7.99;100.00;100999.84;5110537;28;20028;-57
2023/12/26 07:13:34;;;;;;;3.55;2.33;;;;;;;7.96;100.00;101009.66;5110449;28;20033;-57
2023/12/26 07:15:59;;;;;;;4.03;2.30;;;;;;;7.97;100.00;101029.94;5093125;28;20034;-57
2023/12/26 07:18:25;;;;;;;6.20;2.50;;;;;;;8.06;100.00;101027.75;5094302;28;20106;-57
2023/12/26 07:20:52;;;;;;;5.55;2.60;;;;;;;7.95;100.00;101025.66;5116566;27;20539;-58
2023/12/26 07:23:18;;;;;;;8.88;2.58;;;;;;;7.92;100.00;101037.25;5112559;27;20072;-57
2023/12/26 07:25:43;;;;;;;8.20;2.42;;;;;;;7.87;100.00;101035.75;5112396;28;20031;-57
2023/12/26 07:28:14;;;;;;;6.05;1.85;;;;;;;7.86;100.00;101049.94;5112622;28;20437;-57
2023/12/26 07:30:40;;;;;;;8.65;2.47;;;;;;;7.87;100.00;101062.22;5115211;27;20049;-57
2023/12/26 07:33:08;;;;;;;5.13;2.10;;;;;;;7.89;100.00;101055.06;5116142;27;20024;-57
2023/12/26 07:35:37;;;;;;;7.47;2.50;;;;;;;7.90;100.00;101055.00;5111712;28;20028;-57
2023/12/26 07:38:03;;;;;;;7.82;2.10;;;;;;;7.92;100.00;101053.13;5108888;28;20394;-57
2023/12/26 07:40:31;;;;;;;9.15;2.58;;;;;;;7.94;100.00;101053.03;5111629;28;20092;-57
2023/12/26 07:42:57;;;;;;;6.68;2.50;;;;;;;7.95;100.00;101062.72;5111895;28;20023;-57
2023/12/26 07:45:25;;;;;;;10.77;2.40;;;;;;;7.90;100.00;101070.88;5093457;28;20094;-57
2023/12/26 07:47:51;;;;;;;10.73;2.45;;;;;;;7.90;100.00;101080.63;5111314;28;20092;-57
2023/12/26 07:50:17;;;;;;;8.50;2.40;;;;;;;7.92;100.00;101082.25;5111212;28;20054;-58
2023/12/26 07:52:42;;;;;;;13.80;2.85;;;;;;;7.91;100.00;101090.25;5110994;28;20027;-57
2023/12/26 07:55:08;;;;;;;6.93;3.15;;;;;;;7.90;100.00;101089.41;5092603;28;20019;-57
2023/12/26 07:57:33;;;;;;;6.55;2.65;;;;;;;7.81;100.00;101089.00;5093105;28;20478;-58
2023/12/26 07:59:59;;;;;;;11.75;2.85;;;;;;;7.86;100.00;101095.81;5109852;28;20084;-57
2023/12/26 08:02:24;;;;;;;13.07;3.17;;;;;;;7.82;100.00;101110.09;5091086;28;20032;-57
2023/12/26 08:04:50;;;;;;;8.65;2.67;;;;;;;7.84;100.00;101107.41;5092637;28;20102;-57
2023/12/26 08:07:17;;;;;;;12.45;2.65;;;;;;;7.82;100.00;101115.38;5111202;28;20032;-57
2023/12/26 08:09:43;;;;;;;6.22;2.38;;;;;;;7.87;100.00;101121.34;5110739;28;20028;-57
2023/12/26 08:12:08;;;;;;;7.18;2.42;;;;;;;7.77;100.00;101109.47;5110624;28;20031;-56
2023/12/26 08:14:34;;;;;;;13.90;4.82;;;;;;;7.95;99.92;101124.50;5093173;28;20023;-57
2023/12/26 08:16:59;;;;;;;8.07;2.45;;;;;;;7.83;100.00;101124.22;5093119;28;20016;-57
2023/12/26 08:19:25;;;;;;;9.35;3.58;;;;;;;7.85;100.00;101107.34;5110787;28;20019;-57
2023/12/26 08:21:50;;;;;;;7.82;2.65;;;;;;;7.79;100.00;101136.72;5111531;27;20030;-56
2023/12/26 08:24:15;;;;;;;8.48;2.40;;;;;;;7.75;100.00;101140.47;5113018;27;20474;-57
2023/12/26 08:26:41;;;;;;;8.45;2.95;;;;;;;7.77;100.00;101135.97;5113601;28;20034;-57
2023/12/26 08:29:07;;;;;;;10.13;2.72;;;;;;;7.75;100.00;101137.81;5092672;28;20031;-56
2023/12/26 08:31:32;;;;;;;9.38;2.63;;;;;;;7.73;100.00;101153.78;5092338;28;20024;-57
2023/12/26 08:33:58;;;;;;;12.45;3.05;;;;;;;7.72;100.00;101156.47;5109474;28;20028;-57
2023/12/26 08:36:24;;;;;;;9.40;2.72;;;;;;;7.72;100.00;101153.84;5093113;28;20027;-57
2023/12/26 08:38:52;;;;;;;7.22;2.70;;;;;;;7.73;100.00;101167.03;5110109;27;20016;-57
2023/12/26 08:41:18;;;;;;;8.38;2.90;;;;;;;7.77;100.00;101177.47;5111674;27;20020;-57
2023/12/26 08:43:44;;;;;;;8.27;2.53;;;;;;;7.71;100.00;101170.66;5113590;27;20024;-57
2023/12/26 08:46:12;;;;;;;10.65;2.83;;;;;;;7.61;100.00;101175.50;5111137;28;20114;-58
2023/12/26 08:48:40;;;;;;;6.90;2.63;;;;;;;7.63;100.00;101191.31;5092684;28;20023;-58
2023/12/26 08:51:05;;;;;;;17.08;4.18;;;;;;;7.71;100.00;101205.06;5093112;28;20474;-58
2023/12/26 08:53:33;;;;;;;8.68;2.90;;;;;;;7.63;100.00;101205.41;5109759;28;20015;-58
2023/12/26 08:56:03;;;;;;;14.25;3.10;;;;;;;7.66;100.00;101215.00;5111886;28;20084;-57
2023/12/26 08:58:31;;;;;;;;;;;;;;;7.68;100.00;101215.81;5109327;28;20098;-58
2023/12/26 09:00:57;;;;;;;7.00;2.90;;;;;;;7.69;100.00;101210.44;5111537;28;19968;-58
2023/12/26 09:03:22;;;;;;;9.85;2.70;;;;;;;7.69;100.00;101202.47;5094719;28;20555;-58
2023/12/26 09:05:50;;;;;;;6.97;2.50;;;;;;;7.69;100.00;101212.22;5110929;28;20428;-58
2023/12/26 09:08:16;;;;;;;13.35;3.00;;;;;;;7.82;100.00;101215.16;5110499;28;20356;-57
2023/12/26 09:10:42;;;;;;;11.25;2.70;;;;;;;7.82;100.00;101226.59;5114649;28;20015;-57
2023/12/26 09:13:07;;;;;;;9.85;3.45;;;;;;;7.92;100.00;101235.00;5112043;28;20027;-57
2023/12/26 09:15:33;;;;;;;13.10;2.60;;;;;;;7.98;100.00;101237.38;5093364;28;20019;-57
2023/12/26 09:17:58;;;;;;;13.23;2.47;;;;;;;8.06;100.00;101248.47;5090826;28;20024;-57
2023/12/26 09:20:23;;;;;;;8.52;2.72;;;;;;;8.20;100.00;101250.47;5111864;28;20373;-57
2023/12/26 09:22:50;;;;;;;6.97;2.65;;;;;;;8.24;100.00;101245.91;5090664;28;20449;-57
2023/12/26 09:25:18;;;;;;;13.00;2.78;;;;;;;8.29;99.98;101236.78;5113413;28;20027;-57
2023/12/26 09:27:45;;;;;;;11.85;2.92;;;;;;;8.27;100.00;101254.56;5108798;28;20102;-58
2023/12/26 09:30:11;;;;;;;16.00;3.30;;;;;;;8.20;99.85;101242.53;5108663;28;20026;-58
2023/12/26 09:32:37;;;;;;;5.68;2.78;;;;;;;8.23;100.00;101263.56;5092432;28;20024;-59
2023/12/26 09:35:02;;;;;;;12.32;2.80;;;;;;;8.24;100.00;101267.09;5112974;28;20449;-58
2023/12/26 09:37:34;;;;;;;16.65;3.13;;;;;;;8.13;99.29;101267.59;5114364;28;20027;-58
2023/12/26 09:40:02;;;;;;;10.68;2.67;;;;;;;8.19;100.00;101275.25;5113887;28;20020;-58
2023/12/26 09:42:29;;;;;;;9.35;3.03;;;;;;;8.16;100.00;101286.84;5117356;27;20031;-58
2023/12/26 09:44:58;;;;;;;20.40;3.20;;;;;;;8.17;99.49;101301.81;5100273;28;20047;-57
2023/12/26 09:47:25;;;;;;;11.07;3.05;;;;;;;8.13;100.00;101302.91;5116272;27;20030;-58
2023/12/26 09:49:51;;;;;;;11.48;3.40;;;;;;;8.06;100.00;101313.81;5116514;27;20163;-59
2023/12/26 09:52:17;;;;;;;10.95;3.20;;;;;;;8.10;99.81;101318.06;5095988;28;20068;-59
2023/12/26 09:54:46;;;;;;;12.57;2.92;;;;;;;7.99;100.00;101310.59;5113641;28;20474;-59
2023/12/26 09:57:13;;;;;;;11.30;3.25;;;;;;;8.10;99.96;101320.72;5115912;27;20059;-59
2023/12/26 09:59:40;;;;;;;8.77;2.50;;;;;;;7.94;100.00;101324.06;5113157;28;20031;-60
2023/12/26 10:02:12;;;;;;;15.65;2.90;;;;;;;8.04;99.79;101329.81;5118634;27;20026;-60
2023/12/26 10:04:37;;;;;;;7.82;2.30;;;;;;;7.92;100.00;101339.16;5113946;27;20026;-59
2023/12/26 10:07:03;;;;;;;10.05;2.50;;;;;;;7.96;99.87;101345.16;5078776;28;20386;-59
2023/12/26 10:09:28;;;;;;;13.70;3.47;;;;;;;7.93;100.00;101342.66;5095184;28;20055;-59
2023/12/26 10:11:54;;;;;;;10.23;3.42;;;;;;;7.97;100.00;101337.16;5095668;28;20012;-59
2023/12/26 10:14:29;;;;;;;15.85;3.30;;;;;;;8.21;100.00;101339.66;5097234;28;20027;-59
2023/12/26 10:16:56;;;;;;;11.50;2.60;;;;;;;8.43;99.14;101346.66;5093883;28;20069;-59
2023/12/26 10:19:21;;;;;;;7.75;2.88;;;;;;;8.41;99.30;101346.69;5095135;28;20370;-59
2023/12/26 10:21:47;;;;;;;11.02;2.75;;;;;;;8.45;99.85;101352.75;5095387;28;20081;-59
2023/12/26 10:24:12;;;;;;;13.77;3.00;;;;;;;8.59;97.20;101372.38;5094236;28;20019;-58
2023/12/26 10:26:38;;;;;;;11.52;3.40;;;;;;;8.67;99.21;101376.44;5112327;27;20020;-58
2023/12/26 10:29:04;;;;;;;15.15;3.40;;;;;;;8.86;97.69;101366.72;5093309;28;20027;-58
2023/12/26 10:31:29;;;;;;;11.07;3.03;;;;;;;9.23;96.67;101383.50;5095610;28;20047;-58
2023/12/26 10:33:55;;;;;;;13.35;3.05;;;;;;;9.53;94.17;101375.84;5114647;27;20027;-57
2023/12/26 10:36:20;;;;;;;9.20;3.05;;;;;;;9.77;91.99;101373.72;5096018;28;20047;-57
2023/12/26 10:38:46;;;;;;;10.85;3.10;;;;;;;10.10;91.41;101376.41;5093953;28;20023;-57
2023/12/26 10:41:24;;;;;;;13.88;3.60;;;;;;;10.30;90.65;101350.63;5112536;28;20015;-57
2023/12/26 10:43:49;;;;;;;10.05;3.10;;;;;;;10.73;88.41;101373.06;5112706;27;20443;-58
2023/12/26 10:46:17;;;;;;;7.85;2.58;;;;;;;10.88;87.35;101371.34;5093115;28;20126;-58
2023/12/26 10:48:43;;;;;;;11.88;3.60;;;;;;;11.08;85.64;101371.06;5095147;28;20118;-58
2023/12/26 10:51:11;;;;;;;10.43;2.45;;;;;;;11.47;82.98;101369.75;5113324;28;20031;-56
2023/12/26 10:53:47;;;;;;;9.90;3.42;;;;;;;11.53;82.58;101366.72;5112457;28;20031;-56
2023/12/26 10:56:13;;;;;;;11.30;3.95;;;;;;;11.15;81.09;101355.63;5094737;28;20016;-56
2023/12/26 10:58:40;;;;;;;13.98;3.97;;;;;;;11.22;81.77;101370.28;5113265;28;20020;-56
2023/12/26 13:53:13;;;;;;;13.23;3.63;;;;;;;9.15;93.10;101545.78;5094878;28;20092;-58
2023/12/26 13:56:16;;;;;;;10.40;3.78;;;;;;;9.10;93.13;101547.75;5095024;28;20024;-58
2023/12/26 13:59:20;;;;;;;19.35;3.58;;;;;;;9.20;93.33;101551.69;5094658;28;20020;-58
2023/12/26 14:02:23;;;;;;;18.65;3.42;;;;;;;9.11;93.60;101562.75;5094753;28;20140;-58
2023/12/26 14:05:26;;;;;;;14.30;4.68;;;;;;;9.08;92.27;101560.22;5094461;28;20048;-58
2023/12/26 14:08:28;;;;;;;12.48;3.03;;;;;;;9.03;93.39;101573.72;5094110;28;20056;-58
2023/12/26 14:11:31;;;;;;;11.05;3.20;;;;;;;9.08;93.42;101571.69;5076288;28;20134;-58
2023/12/26 14:14:34;;;;;;;11.75;3.00;;;;;;;9.04;90.59;101577.22;5094099;28;20024;-58
2023/12/26 14:17:38;;;;;;;6.43;2.42;;;;;;;8.96;90.19;101577.56;5094319;28;20539;-58